sensor_id;sensor_type;location;lat;lon;timestamp;P1;durP1;ratioP1;P2;durP2;ratioP2
38911;SDS011;28444;48.056;14.408;2023-03-01T00:01:24;45.97;;;18.23;;
38911;SDS011;28444;48.056;14.408;2023-03-01T00:03:53;37.95;;;17.70;;
38911;SDS011;28444;48.056;14.408;2023-03-01T00:06:20;32.65;;;17.08;;
38911;SDS011;28444;48.056;14.408;2023-03-01T00:08:47;37.88;;;19.05;;
38911;SDS011;28444;48.056;14.408;2023-03-01T00:11:15;35.08;;;16.98;;
38911;SDS011;28444;48.056;14.408;2023-03-01T00:16:16;34.83;;;16.58;;
38911;SDS011;28444;48.056;14.408;2023-03-01T00:18:44;31.02;;;15.48;;
38911;SDS011;28444;48.056;14.408;2023-03-01T00:21:12;36.00;;;16.67;;
38911;SDS011;28444;48.056;14.408;2023-03-01T00:23:39;35.40;;;16.63;;
38911;SDS011;28444;48.056;14.408;2023-03-01T00:26:07;28.80;;;15.65;;
38911;SDS011;28444;48.056;14.408;2023-03-01T00:28:35;31.98;;;17.63;;
38911;SDS011;28444;48.056;14.408;2023-03-01T00:31:05;43.42;;;17.02;;
38911;SDS011;28444;48.056;14.408;2023-03-01T00:33:34;38.83;;;17.10;;
38911;SDS011;28444;48.056;14.408;2023-03-01T00:36:01;34.55;;;16.52;;
38911;SDS011;28444;48.056;14.408;2023-03-01T00:38:28;28.95;;;16.17;;
38911;SDS011;28444;48.056;14.408;2023-03-01T00:40:55;34.00;;;17.52;;
38911;SDS011;28444;48.056;14.408;2023-03-01T00:43:21;27.35;;;15.00;;
38911;SDS011;28444;48.056;14.408;2023-03-01T00:45:48;33.47;;;15.35;;
38911;SDS011;28444;48.056;14.408;2023-03-01T00:48:15;42.83;;;18.52;;
38911;SDS011;28444;48.056;14.408;2023-03-01T00:50:42;32.05;;;17.55;;
38911;SDS011;28444;48.056;14.408;2023-03-01T00:53:08;37.60;;;18.48;;
38911;SDS011;28444;48.056;14.408;2023-03-01T00:55:35;34.08;;;17.40;;
38911;SDS011;28444;48.056;14.408;2023-03-01T00:58:02;39.38;;;17.42;;
38911;SDS011;28444;48.056;14.408;2023-03-01T01:00:29;32.95;;;17.92;;
38911;SDS011;28444;48.056;14.408;2023-03-01T01:02:55;37.88;;;18.60;;
38911;SDS011;28444;48.056;14.408;2023-03-01T01:05:22;39.83;;;18.27;;
38911;SDS011;28444;48.056;14.408;2023-03-01T01:07:49;36.33;;;18.17;;
38911;SDS011;28444;48.056;14.408;2023-03-01T01:10:15;35.53;;;17.77;;
38911;SDS011;28444;48.056;14.408;2023-03-01T01:12:46;34.55;;;17.42;;
38911;SDS011;28444;48.056;14.408;2023-03-01T01:15:13;39.63;;;17.50;;
38911;SDS011;28444;48.056;14.408;2023-03-01T01:17:42;36.92;;;18.77;;
38911;SDS011;28444;48.056;14.408;2023-03-01T01:20:09;42.50;;;19.35;;
38911;SDS011;28444;48.056;14.408;2023-03-01T01:22:37;44.10;;;18.80;;
38911;SDS011;28444;48.056;14.408;2023-03-01T01:25:04;41.10;;;18.73;;
38911;SDS011;28444;48.056;14.408;2023-03-01T01:27:31;29.63;;;17.38;;
38911;SDS011;28444;48.056;14.408;2023-03-01T01:29:57;42.22;;;21.13;;
38911;SDS011;28444;48.056;14.408;2023-03-01T01:32:24;39.85;;;21.17;;
38911;SDS011;28444;48.056;14.408;2023-03-01T01:34:52;36.50;;;18.98;;
38911;SDS011;28444;48.056;14.408;2023-03-01T01:37:19;33.70;;;17.35;;
38911;SDS011;28444;48.056;14.408;2023-03-01T01:39:46;36.38;;;17.95;;
38911;SDS011;28444;48.056;14.408;2023-03-01T01:42:15;36.63;;;18.95;;
38911;SDS011;28444;48.056;14.408;2023-03-01T01:44:45;41.30;;;20.00;;
38911;SDS011;28444;48.056;14.408;2023-03-01T01:47:14;39.30;;;19.25;;
38911;SDS011;28444;48.056;14.408;2023-03-01T01:49:51;39.60;;;20.48;;
38911;SDS011;28444;48.056;14.408;2023-03-01T01:52:22;38.75;;;19.70;;
38911;SDS011;28444;48.056;14.408;2023-03-01T01:54:57;49.47;;;20.48;;
38911;SDS011;28444;48.056;14.408;2023-03-01T01:57:30;38.70;;;19.80;;
38911;SDS011;28444;48.056;14.408;2023-03-01T02:00:03;43.97;;;20.27;;
38911;SDS011;28444;48.056;14.408;2023-03-01T02:02:33;36.95;;;20.35;;
38911;SDS011;28444;48.056;14.408;2023-03-01T02:07:52;44.97;;;22.75;;
38911;SDS011;28444;48.056;14.408;2023-03-01T02:10:20;40.17;;;20.88;;
38911;SDS011;28444;48.056;14.408;2023-03-01T02:12:48;41.58;;;21.15;;
38911;SDS011;28444;48.056;14.408;2023-03-01T02:15:16;44.88;;;21.20;;
38911;SDS011;28444;48.056;14.408;2023-03-01T02:17:42;39.03;;;21.42;;
38911;SDS011;28444;48.056;14.408;2023-03-01T02:20:21;49.97;;;26.70;;
38911;SDS011;28444;48.056;14.408;2023-03-01T02:22:52;48.22;;;24.05;;
38911;SDS011;28444;48.056;14.408;2023-03-01T02:25:31;46.88;;;23.88;;
38911;SDS011;28444;48.056;14.408;2023-03-01T02:28:10;59.90;;;27.20;;
38911;SDS011;28444;48.056;14.408;2023-03-01T02:30:58;51.38;;;24.98;;
38911;SDS011;28444;48.056;14.408;2023-03-01T02:33:43;49.80;;;25.58;;
38911;SDS011;28444;48.056;14.408;2023-03-01T02:36:11;49.53;;;25.02;;
38911;SDS011;28444;48.056;14.408;2023-03-01T02:38:42;55.20;;;26.58;;
38911;SDS011;28444;48.056;14.408;2023-03-01T02:41:10;74.30;;;33.00;;
38911;SDS011;28444;48.056;14.408;2023-03-01T02:43:41;78.13;;;37.22;;
38911;SDS011;28444;48.056;14.408;2023-03-01T02:46:12;83.68;;;44.35;;
38911;SDS011;28444;48.056;14.408;2023-03-01T02:48:52;85.65;;;42.08;;
38911;SDS011;28444;48.056;14.408;2023-03-01T02:51:45;72.45;;;36.47;;
38911;SDS011;28444;48.056;14.408;2023-03-01T02:57:16;117.05;;;47.38;;
38911;SDS011;28444;48.056;14.408;2023-03-01T02:59:44;146.98;;;67.05;;
38911;SDS011;28444;48.056;14.408;2023-03-01T03:02:46;65.28;;;31.63;;
38911;SDS011;28444;48.056;14.408;2023-03-01T03:05:08;52.65;;;26.40;;
38911;SDS011;28444;48.056;14.408;2023-03-01T03:07:38;55.42;;;24.58;;
38911;SDS011;28444;48.056;14.408;2023-03-01T03:10:08;48.88;;;24.02;;
38911;SDS011;28444;48.056;14.408;2023-03-01T03:12:38;55.28;;;24.70;;
38911;SDS011;28444;48.056;14.408;2023-03-01T03:15:05;51.38;;;24.50;;
38911;SDS011;28444;48.056;14.408;2023-03-01T03:17:36;50.60;;;25.02;;
38911;SDS011;28444;48.056;14.408;2023-03-01T03:20:04;51.83;;;24.40;;
38911;SDS011;28444;48.056;14.408;2023-03-01T03:22:32;51.10;;;25.40;;
38911;SDS011;28444;48.056;14.408;2023-03-01T03:25:00;56.80;;;26.13;;
38911;SDS011;28444;48.056;14.408;2023-03-01T03:27:27;61.92;;;28.13;;
38911;SDS011;28444;48.056;14.408;2023-03-01T03:29:54;62.67;;;27.38;;
38911;SDS011;28444;48.056;14.408;2023-03-01T03:32:20;69.93;;;31.80;;
38911;SDS011;28444;48.056;14.408;2023-03-01T03:34:47;59.65;;;28.40;;
38911;SDS011;28444;48.056;14.408;2023-03-01T03:37:14;54.95;;;26.60;;
38911;SDS011;28444;48.056;14.408;2023-03-01T03:40:01;57.42;;;28.15;;
38911;SDS011;28444;48.056;14.408;2023-03-01T03:42:27;58.60;;;25.48;;
38911;SDS011;28444;48.056;14.408;2023-03-01T03:44:54;56.65;;;28.40;;
38911;SDS011;28444;48.056;14.408;2023-03-01T03:47:21;63.83;;;27.00;;
38911;SDS011;28444;48.056;14.408;2023-03-01T03:49:48;55.67;;;26.98;;
38911;SDS011;28444;48.056;14.408;2023-03-01T03:52:14;57.05;;;27.38;;
38911;SDS011;28444;48.056;14.408;2023-03-01T03:54:41;57.20;;;25.83;;
38911;SDS011;28444;48.056;14.408;2023-03-01T03:57:08;61.58;;;26.60;;
38911;SDS011;28444;48.056;14.408;2023-03-01T03:59:34;58.67;;;28.33;;
38911;SDS011;28444;48.056;14.408;2023-03-01T04:02:01;62.75;;;27.13;;
38911;SDS011;28444;48.056;14.408;2023-03-01T04:04:28;64.65;;;28.77;;
38911;SDS011;28444;48.056;14.408;2023-03-01T04:06:54;62.58;;;28.23;;
38911;SDS011;28444;48.056;14.408;2023-03-01T04:09:21;59.17;;;29.80;;
38911;SDS011;28444;48.056;14.408;2023-03-01T04:11:48;74.57;;;32.63;;
38911;SDS011;28444;48.056;14.408;2023-03-01T04:14:14;61.05;;;30.10;;
38911;SDS011;28444;48.056;14.408;2023-03-01T04:16:41;62.90;;;27.58;;
38911;SDS011;28444;48.056;14.408;2023-03-01T04:19:08;79.65;;;40.25;;
38911;SDS011;28444;48.056;14.408;2023-03-01T04:21:35;97.70;;;46.45;;
38911;SDS011;28444;48.056;14.408;2023-03-01T04:24:02;82.22;;;37.00;;
38911;SDS011;28444;48.056;14.408;2023-03-01T04:26:29;89.63;;;43.05;;
38911;SDS011;28444;48.056;14.408;2023-03-01T04:28:56;69.78;;;33.15;;
38911;SDS011;28444;48.056;14.408;2023-03-01T04:31:23;65.22;;;31.85;;
38911;SDS011;28444;48.056;14.408;2023-03-01T04:33:51;58.67;;;29.15;;
38911;SDS011;28444;48.056;14.408;2023-03-01T04:36:19;63.38;;;29.08;;
38911;SDS011;28444;48.056;14.408;2023-03-01T04:38:48;62.80;;;29.98;;
38911;SDS011;28444;48.056;14.408;2023-03-01T04:41:16;62.17;;;27.88;;
38911;SDS011;28444;48.056;14.408;2023-03-01T04:43:44;60.63;;;28.58;;
38911;SDS011;28444;48.056;14.408;2023-03-01T04:46:12;63.30;;;28.50;;
38911;SDS011;28444;48.056;14.408;2023-03-01T04:48:41;61.60;;;29.92;;
38911;SDS011;28444;48.056;14.408;2023-03-01T04:51:09;54.78;;;28.95;;
38911;SDS011;28444;48.056;14.408;2023-03-01T04:53:36;60.17;;;28.45;;
38911;SDS011;28444;48.056;14.408;2023-03-01T04:56:03;61.55;;;27.42;;
38911;SDS011;28444;48.056;14.408;2023-03-01T04:58:30;64.47;;;28.17;;
38911;SDS011;28444;48.056;14.408;2023-03-01T05:00:57;57.67;;;29.75;;
38911;SDS011;28444;48.056;14.408;2023-03-01T05:03:24;65.60;;;32.58;;
38911;SDS011;28444;48.056;14.408;2023-03-01T05:05:51;72.88;;;29.65;;
38911;SDS011;28444;48.056;14.408;2023-03-01T05:08:19;65.38;;;28.08;;
38911;SDS011;28444;48.056;14.408;2023-03-01T05:10:50;66.03;;;29.75;;
38911;SDS011;28444;48.056;14.408;2023-03-01T05:13:18;67.35;;;30.40;;
38911;SDS011;28444;48.056;14.408;2023-03-01T05:15:56;67.10;;;31.42;;
38911;SDS011;28444;48.056;14.408;2023-03-01T05:18:24;60.63;;;27.98;;
38911;SDS011;28444;48.056;14.408;2023-03-01T05:20:53;61.10;;;30.55;;
38911;SDS011;28444;48.056;14.408;2023-03-01T05:23:22;64.93;;;29.50;;
38911;SDS011;28444;48.056;14.408;2023-03-01T05:25:49;73.95;;;30.77;;
38911;SDS011;28444;48.056;14.408;2023-03-01T05:28:18;66.22;;;31.35;;
38911;SDS011;28444;48.056;14.408;2023-03-01T05:30:46;65.60;;;32.47;;
38911;SDS011;28444;48.056;14.408;2023-03-01T05:33:13;65.18;;;31.75;;
38911;SDS011;28444;48.056;14.408;2023-03-01T05:35:43;59.22;;;29.92;;
38911;SDS011;28444;48.056;14.408;2023-03-01T05:38:11;64.93;;;34.35;;
38911;SDS011;28444;48.056;14.408;2023-03-01T05:40:42;68.03;;;31.73;;
38911;SDS011;28444;48.056;14.408;2023-03-01T05:43:12;64.10;;;31.45;;
38911;SDS011;28444;48.056;14.408;2023-03-01T05:45:40;76.85;;;32.00;;
38911;SDS011;28444;48.056;14.408;2023-03-01T05:48:07;67.93;;;31.58;;
38911;SDS011;28444;48.056;14.408;2023-03-01T05:50:35;60.28;;;27.40;;
38911;SDS011;28444;48.056;14.408;2023-03-01T05:53:06;65.57;;;30.90;;
38911;SDS011;28444;48.056;14.408;2023-03-01T05:55:36;64.05;;;28.80;;
38911;SDS011;28444;48.056;14.408;2023-03-01T05:58:07;70.10;;;29.83;;
38911;SDS011;28444;48.056;14.408;2023-03-01T06:00:36;63.72;;;31.08;;
38911;SDS011;28444;48.056;14.408;2023-03-01T06:03:03;66.07;;;28.30;;
38911;SDS011;28444;48.056;14.408;2023-03-01T06:05:29;57.55;;;28.10;;
38911;SDS011;28444;48.056;14.408;2023-03-01T06:08:00;66.70;;;29.48;;
38911;SDS011;28444;48.056;14.408;2023-03-01T06:10:27;69.13;;;31.85;;
38911;SDS011;28444;48.056;14.408;2023-03-01T06:12:55;68.57;;;29.80;;
38911;SDS011;28444;48.056;14.408;2023-03-01T06:15:22;60.88;;;29.67;;
38911;SDS011;28444;48.056;14.408;2023-03-01T06:17:49;68.55;;;30.80;;
38911;SDS011;28444;48.056;14.408;2023-03-01T06:20:17;66.65;;;30.00;;
38911;SDS011;28444;48.056;14.408;2023-03-01T06:22:46;67.25;;;29.95;;
38911;SDS011;28444;48.056;14.408;2023-03-01T06:25:14;64.20;;;29.98;;
38911;SDS011;28444;48.056;14.408;2023-03-01T06:27:43;70.57;;;32.13;;
38911;SDS011;28444;48.056;14.408;2023-03-01T06:30:11;69.15;;;32.53;;
38911;SDS011;28444;48.056;14.408;2023-03-01T06:32:40;61.22;;;32.60;;
38911;SDS011;28444;48.056;14.408;2023-03-01T06:35:11;66.40;;;30.92;;
38911;SDS011;28444;48.056;14.408;2023-03-01T06:40:07;66.18;;;30.50;;
38911;SDS011;28444;48.056;14.408;2023-03-01T06:42:39;73.22;;;35.70;;
38911;SDS011;28444;48.056;14.408;2023-03-01T06:45:07;70.40;;;32.13;;
38911;SDS011;28444;48.056;14.408;2023-03-01T06:47:35;69.70;;;32.00;;
38911;SDS011;28444;48.056;14.408;2023-03-01T06:50:02;68.45;;;32.35;;
38911;SDS011;28444;48.056;14.408;2023-03-01T06:52:29;71.20;;;31.75;;
38911;SDS011;28444;48.056;14.408;2023-03-01T06:54:56;76.15;;;34.85;;
38911;SDS011;28444;48.056;14.408;2023-03-01T06:57:23;68.70;;;32.75;;
38911;SDS011;28444;48.056;14.408;2023-03-01T06:59:50;78.97;;;33.10;;
38911;SDS011;28444;48.056;14.408;2023-03-01T07:02:16;68.13;;;32.05;;
38911;SDS011;28444;48.056;14.408;2023-03-01T07:04:43;74.00;;;33.05;;
38911;SDS011;28444;48.056;14.408;2023-03-01T07:07:10;70.10;;;32.08;;
38911;SDS011;28444;48.056;14.408;2023-03-01T07:09:37;70.25;;;33.60;;
38911;SDS011;28444;48.056;14.408;2023-03-01T07:12:04;64.18;;;31.05;;
38911;SDS011;28444;48.056;14.408;2023-03-01T07:14:31;66.85;;;32.63;;
38911;SDS011;28444;48.056;14.408;2023-03-01T07:16:58;82.55;;;31.98;;
38911;SDS011;28444;48.056;14.408;2023-03-01T07:19:24;76.47;;;33.00;;
38911;SDS011;28444;48.056;14.408;2023-03-01T07:21:51;64.93;;;30.23;;
38911;SDS011;28444;48.056;14.408;2023-03-01T07:24:18;68.88;;;31.35;;
38911;SDS011;28444;48.056;14.408;2023-03-01T07:26:47;68.47;;;31.55;;
38911;SDS011;28444;48.056;14.408;2023-03-01T07:29:15;73.50;;;33.42;;
38911;SDS011;28444;48.056;14.408;2023-03-01T07:31:42;64.63;;;32.92;;
38911;SDS011;28444;48.056;14.408;2023-03-01T07:34:09;72.72;;;31.77;;
38911;SDS011;28444;48.056;14.408;2023-03-01T07:36:37;66.68;;;32.20;;
38911;SDS011;28444;48.056;14.408;2023-03-01T07:39:04;76.95;;;31.58;;
38911;SDS011;28444;48.056;14.408;2023-03-01T07:41:31;65.93;;;32.05;;
38911;SDS011;28444;48.056;14.408;2023-03-01T07:43:57;73.53;;;34.58;;
38911;SDS011;28444;48.056;14.408;2023-03-01T07:46:24;70.55;;;32.40;;
38911;SDS011;28444;48.056;14.408;2023-03-01T07:48:51;67.80;;;31.13;;
38911;SDS011;28444;48.056;14.408;2023-03-01T07:51:17;70.47;;;32.50;;
38911;SDS011;28444;48.056;14.408;2023-03-01T07:53:47;69.90;;;32.22;;
38911;SDS011;28444;48.056;14.408;2023-03-01T07:56:14;66.97;;;33.08;;
38911;SDS011;28444;48.056;14.408;2023-03-01T07:58:45;67.80;;;31.92;;
38911;SDS011;28444;48.056;14.408;2023-03-01T08:01:15;70.47;;;30.83;;
38911;SDS011;28444;48.056;14.408;2023-03-01T08:03:43;109.43;;;36.72;;
38911;SDS011;28444;48.056;14.408;2023-03-01T08:06:11;79.72;;;33.00;;
38911;SDS011;28444;48.056;14.408;2023-03-01T08:08:39;83.13;;;33.10;;
38911;SDS011;28444;48.056;14.408;2023-03-01T08:11:06;79.55;;;32.22;;
38911;SDS011;28444;48.056;14.408;2023-03-01T08:13:34;66.05;;;31.00;;
38911;SDS011;28444;48.056;14.408;2023-03-01T08:16:02;71.78;;;31.05;;
38911;SDS011;28444;48.056;14.408;2023-03-01T08:18:39;66.78;;;31.25;;
38911;SDS011;28444;48.056;14.408;2023-03-01T08:21:06;66.65;;;32.13;;
38911;SDS011;28444;48.056;14.408;2023-03-01T08:23:35;70.05;;;31.65;;
38911;SDS011;28444;48.056;14.408;2023-03-01T08:26:03;61.40;;;30.92;;
38911;SDS011;28444;48.056;14.408;2023-03-01T08:28:34;64.47;;;30.63;;
38911;SDS011;28444;48.056;14.408;2023-03-01T08:31:02;70.43;;;30.40;;
38911;SDS011;28444;48.056;14.408;2023-03-01T08:33:28;67.80;;;31.27;;
38911;SDS011;28444;48.056;14.408;2023-03-01T08:36:02;62.88;;;28.30;;
38911;SDS011;28444;48.056;14.408;2023-03-01T08:38:30;63.33;;;30.73;;
38911;SDS011;28444;48.056;14.408;2023-03-01T08:40:58;63.20;;;30.95;;
38911;SDS011;28444;48.056;14.408;2023-03-01T08:43:26;65.80;;;29.75;;
38911;SDS011;28444;48.056;14.408;2023-03-01T08:45:53;71.32;;;30.40;;
38911;SDS011;28444;48.056;14.408;2023-03-01T08:48:19;60.92;;;29.90;;
38911;SDS011;28444;48.056;14.408;2023-03-01T08:50:49;61.40;;;28.90;;
38911;SDS011;28444;48.056;14.408;2023-03-01T08:53:15;56.90;;;27.58;;
38911;SDS011;28444;48.056;14.408;2023-03-01T08:55:42;59.65;;;29.85;;
38911;SDS011;28444;48.056;14.408;2023-03-01T08:58:09;62.25;;;28.88;;
38911;SDS011;28444;48.056;14.408;2023-03-01T09:00:35;52.20;;;26.45;;
38911;SDS011;28444;48.056;14.408;2023-03-01T09:03:02;53.03;;;27.95;;
38911;SDS011;28444;48.056;14.408;2023-03-01T09:05:31;52.88;;;25.83;;
38911;SDS011;28444;48.056;14.408;2023-03-01T09:07:59;65.22;;;27.15;;
38911;SDS011;28444;48.056;14.408;2023-03-01T09:10:25;52.20;;;27.15;;
38911;SDS011;28444;48.056;14.408;2023-03-01T09:12:52;58.00;;;27.85;;
38911;SDS011;28444;48.056;14.408;2023-03-01T09:15:19;59.30;;;27.92;;
38911;SDS011;28444;48.056;14.408;2023-03-01T09:17:45;53.70;;;25.30;;
38911;SDS011;28444;48.056;14.408;2023-03-01T09:20:13;52.13;;;27.63;;
38911;SDS011;28444;48.056;14.408;2023-03-01T09:22:40;60.97;;;28.95;;
38911;SDS011;28444;48.056;14.408;2023-03-01T09:25:06;60.58;;;30.38;;
38911;SDS011;28444;48.056;14.408;2023-03-01T09:27:33;58.80;;;26.42;;
38911;SDS011;28444;48.056;14.408;2023-03-01T09:30:00;55.88;;;25.88;;
38911;SDS011;28444;48.056;14.408;2023-03-01T09:32:28;56.15;;;27.80;;
38911;SDS011;28444;48.056;14.408;2023-03-01T09:34:57;56.45;;;26.33;;
38911;SDS011;28444;48.056;14.408;2023-03-01T09:37:33;53.85;;;27.48;;
38911;SDS011;28444;48.056;14.408;2023-03-01T09:40:00;60.47;;;25.50;;
38911;SDS011;28444;48.056;14.408;2023-03-01T09:42:29;64.75;;;25.67;;
38911;SDS011;28444;48.056;14.408;2023-03-01T09:47:46;52.28;;;25.92;;
38911;SDS011;28444;48.056;14.408;2023-03-01T09:50:13;69.22;;;26.75;;
38911;SDS011;28444;48.056;14.408;2023-03-01T09:52:46;57.45;;;26.52;;
38911;SDS011;28444;48.056;14.408;2023-03-01T09:55:36;54.85;;;26.92;;
38911;SDS011;28444;48.056;14.408;2023-03-01T10:04:41;51.85;;;25.95;;
38911;SDS011;28444;48.056;14.408;2023-03-01T10:11:12;47.17;;;23.60;;
38911;SDS011;28444;48.056;14.408;2023-03-01T10:15:47;44.75;;;24.50;;
38911;SDS011;28444;48.056;14.408;2023-03-01T10:18:25;42.95;;;22.98;;
38911;SDS011;28444;48.056;14.408;2023-03-01T10:21:05;48.92;;;23.13;;
38911;SDS011;28444;48.056;14.408;2023-03-01T10:23:45;50.33;;;28.45;;
38911;SDS011;28444;48.056;14.408;2023-03-01T10:26:58;47.63;;;23.63;;
38911;SDS011;28444;48.056;14.408;2023-03-01T10:29:11;52.72;;;24.85;;
38911;SDS011;28444;48.056;14.408;2023-03-01T10:31:56;47.40;;;24.48;;
38911;SDS011;28444;48.056;14.408;2023-03-01T10:34:27;51.17;;;24.48;;
38911;SDS011;28444;48.056;14.408;2023-03-01T10:37:14;42.72;;;24.10;;
38911;SDS011;28444;48.056;14.408;2023-03-01T10:40:06;56.72;;;24.05;;
38911;SDS011;28444;48.056;14.408;2023-03-01T10:42:36;40.35;;;22.90;;
38911;SDS011;28444;48.056;14.408;2023-03-01T10:45:26;45.75;;;24.90;;
38911;SDS011;28444;48.056;14.408;2023-03-01T10:48:12;45.72;;;23.67;;
38911;SDS011;28444;48.056;14.408;2023-03-01T10:53:25;52.13;;;24.80;;
38911;SDS011;28444;48.056;14.408;2023-03-01T10:56:05;46.97;;;23.65;;
38911;SDS011;28444;48.056;14.408;2023-03-01T10:58:35;46.40;;;23.80;;
38911;SDS011;28444;48.056;14.408;2023-03-01T11:01:04;43.08;;;23.05;;
38911;SDS011;28444;48.056;14.408;2023-03-01T11:03:36;55.72;;;25.20;;
38911;SDS011;28444;48.056;14.408;2023-03-01T11:06:12;47.03;;;24.55;;
38911;SDS011;28444;48.056;14.408;2023-03-01T11:08:49;45.83;;;22.77;;
38911;SDS011;28444;48.056;14.408;2023-03-01T11:11:32;46.97;;;22.95;;
38911;SDS011;28444;48.056;14.408;2023-03-01T11:14:07;47.00;;;22.85;;
38911;SDS011;28444;48.056;14.408;2023-03-01T11:16:59;40.95;;;23.33;;
38911;SDS011;28444;48.056;14.408;2023-03-01T11:19:30;41.80;;;22.52;;
38911;SDS011;28444;48.056;14.408;2023-03-01T11:22:07;45.75;;;23.48;;
38911;SDS011;28444;48.056;14.408;2023-03-01T11:24:54;44.78;;;22.40;;
38911;SDS011;28444;48.056;14.408;2023-03-01T11:27:36;45.47;;;22.38;;
38911;SDS011;28444;48.056;14.408;2023-03-01T11:30:07;43.30;;;22.73;;
38911;SDS011;28444;48.056;14.408;2023-03-01T11:32:55;46.67;;;23.17;;
38911;SDS011;28444;48.056;14.408;2023-03-01T11:35:32;45.90;;;22.23;;
38911;SDS011;28444;48.056;14.408;2023-03-01T11:40:50;44.33;;;20.20;;
38911;SDS011;28444;48.056;14.408;2023-03-01T11:43:33;47.80;;;22.83;;
38911;SDS011;28444;48.056;14.408;2023-03-01T12:01:43;46.17;;;23.52;;
38911;SDS011;28444;48.056;14.408;2023-03-01T12:06:22;44.00;;;22.85;;
38911;SDS011;28444;48.056;14.408;2023-03-01T12:11:19;44.53;;;22.70;;
38911;SDS011;28444;48.056;14.408;2023-03-01T12:18:03;47.55;;;23.17;;
38911;SDS011;28444;48.056;14.408;2023-03-01T12:20:32;48.22;;;22.42;;
38911;SDS011;28444;48.056;14.408;2023-03-01T12:23:16;50.90;;;24.80;;
38911;SDS011;28444;48.056;14.408;2023-03-01T12:26:08;46.35;;;22.73;;
38911;SDS011;28444;48.056;14.408;2023-03-01T12:28:59;42.85;;;23.55;;
38911;SDS011;28444;48.056;14.408;2023-03-01T12:38:21;39.63;;;23.33;;
38911;SDS011;28444;48.056;14.408;2023-03-01T12:41:11;41.58;;;23.40;;
38911;SDS011;28444;48.056;14.408;2023-03-01T12:44:08;43.03;;;23.95;;
38911;SDS011;28444;48.056;14.408;2023-03-01T12:49:14;40.97;;;22.00;;
38911;SDS011;28444;48.056;14.408;2023-03-01T12:51:51;48.95;;;24.35;;
38911;SDS011;28444;48.056;14.408;2023-03-01T12:54:28;44.10;;;23.17;;
38911;SDS011;28444;48.056;14.408;2023-03-01T12:56:58;40.80;;;21.77;;
38911;SDS011;28444;48.056;14.408;2023-03-01T12:59:36;47.10;;;22.73;;
38911;SDS011;28444;48.056;14.408;2023-03-01T13:02:25;43.63;;;22.85;;
38911;SDS011;28444;48.056;14.408;2023-03-01T13:05:16;45.33;;;23.08;;
38911;SDS011;28444;48.056;14.408;2023-03-01T13:11:05;41.08;;;22.38;;
38911;SDS011;28444;48.056;14.408;2023-03-01T13:13:38;50.75;;;22.95;;
38911;SDS011;28444;48.056;14.408;2023-03-01T13:19:17;43.97;;;21.08;;
38911;SDS011;28444;48.056;14.408;2023-03-01T13:21:46;42.15;;;22.45;;
38911;SDS011;28444;48.056;14.408;2023-03-01T13:24:26;36.42;;;20.15;;
38911;SDS011;28444;48.056;14.408;2023-03-01T13:27:23;45.40;;;22.35;;
38911;SDS011;28444;48.056;14.408;2023-03-01T13:29:52;39.13;;;22.15;;
38911;SDS011;28444;48.056;14.408;2023-03-01T13:32:21;46.15;;;20.20;;
38911;SDS011;28444;48.056;14.408;2023-03-01T13:35:43;40.70;;;22.50;;
38911;SDS011;28444;48.056;14.408;2023-03-01T13:44:30;41.47;;;20.13;;
38911;SDS011;28444;48.056;14.408;2023-03-01T13:49:42;36.25;;;20.05;;
38911;SDS011;28444;48.056;14.408;2023-03-01T13:55:23;40.00;;;20.40;;
38911;SDS011;28444;48.056;14.408;2023-03-01T13:57:56;37.97;;;21.02;;
38911;SDS011;28444;48.056;14.408;2023-03-01T14:00:26;42.65;;;19.60;;
38911;SDS011;28444;48.056;14.408;2023-03-01T14:02:59;38.20;;;20.52;;
38911;SDS011;28444;48.056;14.408;2023-03-01T14:05:32;38.65;;;19.63;;
38911;SDS011;28444;48.056;14.408;2023-03-01T14:07:59;40.97;;;19.83;;
38911;SDS011;28444;48.056;14.408;2023-03-01T14:10:28;31.85;;;19.23;;
38911;SDS011;28444;48.056;14.408;2023-03-01T14:13:09;48.95;;;20.45;;
38911;SDS011;28444;48.056;14.408;2023-03-01T14:16:12;38.65;;;19.55;;
38911;SDS011;28444;48.056;14.408;2023-03-01T14:25:06;35.03;;;19.20;;
38911;SDS011;28444;48.056;14.408;2023-03-01T14:28:23;42.15;;;20.40;;
38911;SDS011;28444;48.056;14.408;2023-03-01T14:31:04;36.83;;;18.83;;
38911;SDS011;28444;48.056;14.408;2023-03-01T14:34:21;42.47;;;19.38;;
38911;SDS011;28444;48.056;14.408;2023-03-01T14:36:48;40.88;;;17.33;;
38911;SDS011;28444;48.056;14.408;2023-03-01T14:39:16;33.80;;;18.75;;
38911;SDS011;28444;48.056;14.408;2023-03-01T14:41:45;38.08;;;17.48;;
38911;SDS011;28444;48.056;14.408;2023-03-01T14:44:14;35.55;;;18.50;;
38911;SDS011;28444;48.056;14.408;2023-03-01T14:46:45;41.72;;;19.52;;
38911;SDS011;28444;48.056;14.408;2023-03-01T14:49:17;41.80;;;18.60;;
38911;SDS011;28444;48.056;14.408;2023-03-01T14:51:57;35.15;;;17.75;;
38911;SDS011;28444;48.056;14.408;2023-03-01T14:54:50;34.17;;;16.90;;
38911;SDS011;28444;48.056;14.408;2023-03-01T14:57:20;35.08;;;19.45;;
38911;SDS011;28444;48.056;14.408;2023-03-01T14:59:51;36.20;;;17.90;;
38911;SDS011;28444;48.056;14.408;2023-03-01T15:02:21;38.50;;;18.92;;
38911;SDS011;28444;48.056;14.408;2023-03-01T15:04:51;37.90;;;18.55;;
38911;SDS011;28444;48.056;14.408;2023-03-01T15:07:24;31.05;;;16.50;;
38911;SDS011;28444;48.056;14.408;2023-03-01T15:09:54;33.73;;;17.07;;
38911;SDS011;28444;48.056;14.408;2023-03-01T15:18:21;33.58;;;17.63;;
38911;SDS011;28444;48.056;14.408;2023-03-01T15:20:53;31.42;;;17.45;;
38911;SDS011;28444;48.056;14.408;2023-03-01T15:23:24;32.33;;;17.17;;
38911;SDS011;28444;48.056;14.408;2023-03-01T15:25:53;30.65;;;16.33;;
38911;SDS011;28444;48.056;14.408;2023-03-01T15:28:25;30.85;;;16.23;;
38911;SDS011;28444;48.056;14.408;2023-03-01T15:31:31;35.30;;;17.88;;
38911;SDS011;28444;48.056;14.408;2023-03-01T15:33:52;38.92;;;16.42;;
38911;SDS011;28444;48.056;14.408;2023-03-01T15:36:46;34.15;;;16.65;;
38911;SDS011;28444;48.056;14.408;2023-03-01T15:42:04;29.90;;;16.58;;
38911;SDS011;28444;48.056;14.408;2023-03-01T15:44:34;30.30;;;15.30;;
38911;SDS011;28444;48.056;14.408;2023-03-01T15:47:22;32.72;;;16.10;;
38911;SDS011;28444;48.056;14.408;2023-03-01T15:49:58;31.63;;;16.63;;
38911;SDS011;28444;48.056;14.408;2023-03-01T15:52:28;28.05;;;15.70;;
38911;SDS011;28444;48.056;14.408;2023-03-01T15:55:03;27.33;;;15.65;;
38911;SDS011;28444;48.056;14.408;2023-03-01T15:57:32;31.17;;;17.52;;
38911;SDS011;28444;48.056;14.408;2023-03-01T15:59:59;31.15;;;15.30;;
38911;SDS011;28444;48.056;14.408;2023-03-01T16:02:25;32.08;;;17.65;;
38911;SDS011;28444;48.056;14.408;2023-03-01T16:04:52;34.08;;;16.80;;
38911;SDS011;28444;48.056;14.408;2023-03-01T16:07:22;34.42;;;17.30;;
38911;SDS011;28444;48.056;14.408;2023-03-01T16:09:49;36.33;;;17.80;;
38911;SDS011;28444;48.056;14.408;2023-03-01T16:12:16;34.63;;;16.42;;